Delta Billie — WDE8059 — position and weather

sailwx.info

Track history (hours):
 
Tides and Currents Weather Stations Pressure Air Temp Water Temp Dewpoint Dewpoint Depression Visibility Wind Speed Wind Dir Waves Ship Positions

Delta Billie

More information available from US FCC via Universal Licensing System and Coast Guard Vessel Documentation Center.

Last reported at 2014-Aug-23 03:18 UTC. Time now 2014-Aug-23 11:32 UTC.
Position N 38°03' W 122°08'.

Length 30 m; draft 5.5 m.

Type: Towing. MMSI: 367401030.

Date/timePositionNaut miles runAvg speedWind from/ knotsBaromVisibWave heightAir tempDewpointWater temp
2014-Aug-23 03:18N 38°03' W 122°08'2 0.1
2014-Aug-22 05:33N 38°03' W 122°11'9 8.0
2014-Aug-22 04:23N 38°02' W 122°22'8 9.8
2014-Aug-22 03:33N 37°54' W 122°27'7 6.4
2014-Aug-22 02:32N 37°49' W 122°31'3 3.3
2014-Aug-22 01:33N 37°49' W 122°27'3 2.9
2014-Aug-22 00:33N 37°48' W 122°24'0 0.0
2014-Aug-21 23:33N 37°48' W 122°24'0 0.0
2014-Aug-21 22:33N 37°48' W 122°24'6 5.9
2014-Aug-21 21:33N 37°49' W 122°31'1 1.0
2014-Aug-21 20:33N 37°49' W 122°30'5 5.1
2014-Aug-21 19:33N 37°52' W 122°25'5 4.7
2014-Aug-21 18:30N 37°57' W 122°27'4 4.2
2014-Aug-21 17:33N 38°00' W 122°24'4 4.2
2014-Aug-21 16:33N 38°03' W 122°20'3 3.0
2014-Aug-21 15:28N 38°04' W 122°16'2 2.2
2014-Aug-21 14:19N 38°03' W 122°19'7 8.6
2014-Aug-21 13:32N 37°59' W 122°25'3 3.3
2014-Aug-21 12:33N 37°56' W 122°25'6 6.3
2014-Aug-21 11:33N 38°02' W 122°22'11 0.6
2014-Aug-20 18:14N 38°02' W 122°09'4 2.1
2014-Aug-20 16:10N 38°04' W 122°14'712.0
2014-Aug-20 15:33N 38°01' W 122°23'6 6.1
2014-Aug-20 14:32N 37°56' W 122°25'3 3.3
2014-Aug-20 13:33N 37°52' W 122°24'7 7.2
2014-Aug-20 12:33N 37°60' W 122°25'7 0.7
2014-Aug-20 02:32N 38°03' W 122°17'3 0.4
2014-Aug-19 19:31N 38°04' W 122°13'2 2.2
2014-Aug-19 18:31N 38°04' W 122°16'3 3.3
2014-Aug-19 17:33N 38°03' W 122°20'6 5.9
2014-Aug-19 16:32N 37°59' W 122°26'6 6.5
2014-Aug-19 15:33N 37°53' W 122°25'5 4.7
2014-Aug-19 14:33N 37°49' W 122°29'2 2.0
2014-Aug-19 13:33N 37°49' W 122°31'6 5.7
2014-Aug-19 12:33N 37°49' W 122°24'1 0.6
2014-Aug-19 11:33N 37°48' W 122°24'0 0.0
2014-Aug-19 10:33N 37°48' W 122°24'6 5.9
2014-Aug-19 09:34N 37°49' W 122°31'8 7.7
2014-Aug-19 08:33N 37°48' W 122°22'0 0.1
2014-Aug-19 07:33N 37°48' W 122°22'0 0.0
2014-Aug-19 06:33N 37°48' W 122°22'5 4.7
2014-Aug-19 05:33N 37°52' W 122°25'10 9.8
2014-Aug-19 04:33N 38°01' W 122°23'8 7.9
2014-Aug-19 03:33N 38°04' W 122°14'6 0.5
2014-Aug-18 14:12N 38°03' W 122°06'2 0.9
2014-Aug-18 12:31N 38°02' W 122°08'4 0.5
2014-Aug-18 04:33N 38°03' W 122°12'1010.2
2014-Aug-18 03:33N 38°00' W 122°24'6 5.9
2014-Aug-18 02:33N 37°54' W 122°22'3 2.7
2014-Aug-18 01:33N 37°55' W 122°25'5 5.1
2014-Aug-18 00:33N 37°50' W 122°26'15 2.5
2014-Aug-17 18:33N 38°03' W 122°17'7 5.4
2014-Aug-17 17:22N 38°02' W 122°09'2 1.2
2014-Aug-17 15:24N 38°03' W 122°06'1 0.1
2014-Aug-17 05:32N 38°03' W 122°08'0 0.0
2014-Aug-17 04:33N 38°03' W 122°08'0 0.0
2014-Aug-17 03:33N 38°03' W 122°08'0 0.0
2014-Aug-17 02:33N 38°03' W 122°08'0 0.0
2014-Aug-17 01:24N 38°03' W 122°08'1 0.1
2014-Aug-16 15:26N 38°03' W 122°06'1 0.9
2014-Aug-16 14:33N 38°03' W 122°05'4 1.7
2014-Aug-16 12:27N 38°02' W 122°10'9 9.0
2014-Aug-16 11:30N 38°03' W 122°21'910.0
2014-Aug-16 10:33N 37°54' W 122°27'9 9.1
2014-Aug-16 09:33N 37°46' W 122°22'1 0.7
2014-Aug-16 08:33N 37°47' W 122°23'2 1.9
2014-Aug-16 07:33N 37°48' W 122°24'0 0.0
2014-Aug-16 06:33N 37°48' W 122°24'0 0.0
2014-Aug-16 05:33N 37°48' W 122°24'0 0.0
2014-Aug-16 04:33N 37°48' W 122°24'0 0.0
2014-Aug-16 03:33N 37°48' W 122°24'0 0.0
2014-Aug-16 02:33N 37°48' W 122°24'0 0.0
2014-Aug-16 01:33N 37°48' W 122°24'4 4.1
2014-Aug-16 00:33N 37°48' W 122°19'3 3.2
2014-Aug-15 23:33N 37°49' W 122°23'7 7.0
2014-Aug-15 22:33N 37°56' W 122°25'0 0.1
2014-Aug-15 21:33N 37°56' W 122°25'1 1.2
2014-Aug-15 20:33N 37°54' W 122°25'1 0.7
2014-Aug-15 19:33N 37°55' W 122°25'0 0.4
2014-Aug-15 18:33N 37°55' W 122°25'0 0.0
2014-Aug-15 17:33N 37°55' W 122°25'0 0.0
2014-Aug-15 16:33N 37°55' W 122°25'0 0.0
2014-Aug-15 15:33N 37°55' W 122°25'1 0.8
2014-Aug-15 14:34N 37°55' W 122°25'8 8.5
2014-Aug-15 13:33N 37°47' W 122°21'1 0.6
2014-Aug-15 12:33N 37°48' W 122°21'1 1.2
2014-Aug-15 11:33N 37°49' W 122°20'0 0.2
2014-Aug-15 10:33N 37°49' W 122°20'0 0.2
2014-Aug-15 09:33N 37°49' W 122°20'3 3.0
2014-Aug-15 08:33N 37°48' W 122°24'0 0.0
2014-Aug-15 07:33N 37°48' W 122°24'0 0.0
2014-Aug-15 06:33N 37°48' W 122°24'0 0.0
2014-Aug-15 05:33N 37°48' W 122°24'0 0.0
2014-Aug-15 04:33N 37°48' W 122°24'0 0.0
2014-Aug-15 03:33N 37°48' W 122°24'0 0.0
2014-Aug-15 02:33N 37°48' W 122°24'3 3.1
2014-Aug-15 01:33N 37°51' W 122°24'4 4.4
2014-Aug-15 00:33N 37°55' W 122°22'1 1.1
2014-Aug-14 23:33N 37°54' W 122°22'3 2.9
2014-Aug-14 22:33N 37°52' W 122°24'4 4.1
2014-Aug-14 21:33N 37°48' W 122°24'0 0.0
2014-Aug-14 20:33N 37°48' W 122°24'0 0.0
2014-Aug-14 19:33N 37°48' W 122°24'0 0.0
2014-Aug-14 18:33N 37°48' W 122°24'0 0.0
2014-Aug-14 17:33N 37°48' W 122°24'0 0.0
2014-Aug-14 16:33N 37°48' W 122°24'0 0.0
2014-Aug-14 15:33N 37°48' W 122°24'3 3.5
2014-Aug-14 14:33N 37°49' W 122°20'4 4.0
2014-Aug-14 13:33N 37°49' W 122°25'1 1.0
2014-Aug-14 12:33N 37°48' W 122°24'0 0.0
2014-Aug-14 11:33N 37°48' W 122°24'0 0.0
2014-Aug-14 10:33N 37°48' W 122°24'1 0.9
2014-Aug-14 09:33N 37°48' W 122°23'1 1.3
2014-Aug-14 08:33N 37°49' W 122°24'6 6.0
2014-Aug-14 07:33N 37°49' W 122°31'6 5.9
2014-Aug-14 06:33N 37°48' W 122°24'0 0.0
2014-Aug-14 05:33N 37°48' W 122°24'0 0.0
2014-Aug-14 04:33N 37°48' W 122°24'0 0.0
2014-Aug-14 03:33N 37°48' W 122°24'0 0.0
2014-Aug-14 02:33N 37°48' W 122°24'3 2.5
2014-Aug-14 01:33N 37°48' W 122°21'1 0.9
2014-Aug-14 00:33N 37°49' W 122°20'1 1.0
2014-Aug-13 23:33N 37°48' W 122°19'0 0.2
2014-Aug-13 22:33N 37°48' W 122°19'5 4.8
2014-Aug-13 21:33N 37°51' W 122°24'7 6.8
2014-Aug-13 20:33N 37°57' W 122°26'8 7.8
2014-Aug-13 19:33N 38°03' W 122°19'  
Track history (hours):
 
Tides and Currents Weather Stations Pressure Air Temp Water Temp Dewpoint Dewpoint Depression Visibility Wind Speed Wind Dir Waves Ship Positions

Delta Billie

More information available from US FCC via Universal Licensing System and Coast Guard Vessel Documentation Center.

Last reported at 2014-Aug-23 03:18 UTC. Time now 2014-Aug-23 11:32 UTC.
Position N 38°03' W 122°08'.

Length 30 m; draft 5.5 m.

Type: Towing. MMSI: 367401030.

Date/timePositionNaut miles runAvg speedWind from/ knotsBaromVisibWave heightAir tempDewpointWater temp
2014-Aug-23 03:18N 38°03' W 122°08'2 0.1
2014-Aug-22 05:33N 38°03' W 122°11'9 8.0
2014-Aug-22 04:23N 38°02' W 122°22'8 9.8
2014-Aug-22 03:33N 37°54' W 122°27'7 6.4
2014-Aug-22 02:32N 37°49' W 122°31'3 3.3
2014-Aug-22 01:33N 37°49' W 122°27'3 2.9
2014-Aug-22 00:33N 37°48' W 122°24'0 0.0
2014-Aug-21 23:33N 37°48' W 122°24'0 0.0
2014-Aug-21 22:33N 37°48' W 122°24'6 5.9
2014-Aug-21 21:33N 37°49' W 122°31'1 1.0
2014-Aug-21 20:33N 37°49' W 122°30'5 5.1
2014-Aug-21 19:33N 37°52' W 122°25'5 4.7
2014-Aug-21 18:30N 37°57' W 122°27'4 4.2
2014-Aug-21 17:33N 38°00' W 122°24'4 4.2
2014-Aug-21 16:33N 38°03' W 122°20'3 3.0
2014-Aug-21 15:28N 38°04' W 122°16'2 2.2
2014-Aug-21 14:19N 38°03' W 122°19'7 8.6
2014-Aug-21 13:32N 37°59' W 122°25'3 3.3
2014-Aug-21 12:33N 37°56' W 122°25'6 6.3
2014-Aug-21 11:33N 38°02' W 122°22'11 0.6
2014-Aug-20 18:14N 38°02' W 122°09'4 2.1
2014-Aug-20 16:10N 38°04' W 122°14'712.0
2014-Aug-20 15:33N 38°01' W 122°23'6 6.1
2014-Aug-20 14:32N 37°56' W 122°25'3 3.3
2014-Aug-20 13:33N 37°52' W 122°24'7 7.2
2014-Aug-20 12:33N 37°60' W 122°25'7 0.7
2014-Aug-20 02:32N 38°03' W 122°17'3 0.4
2014-Aug-19 19:31N 38°04' W 122°13'2 2.2
2014-Aug-19 18:31N 38°04' W 122°16'3 3.3
2014-Aug-19 17:33N 38°03' W 122°20'6 5.9
2014-Aug-19 16:32N 37°59' W 122°26'6 6.5
2014-Aug-19 15:33N 37°53' W 122°25'5 4.7
2014-Aug-19 14:33N 37°49' W 122°29'2 2.0
2014-Aug-19 13:33N 37°49' W 122°31'6 5.7
2014-Aug-19 12:33N 37°49' W 122°24'1 0.6
2014-Aug-19 11:33N 37°48' W 122°24'0 0.0
2014-Aug-19 10:33N 37°48' W 122°24'6 5.9
2014-Aug-19 09:34N 37°49' W 122°31'8 7.7
2014-Aug-19 08:33N 37°48' W 122°22'0 0.1
2014-Aug-19 07:33N 37°48' W 122°22'0 0.0
2014-Aug-19 06:33N 37°48' W 122°22'5 4.7
2014-Aug-19 05:33N 37°52' W 122°25'10 9.8
2014-Aug-19 04:33N 38°01' W 122°23'8 7.9
2014-Aug-19 03:33N 38°04' W 122°14'6 0.5
2014-Aug-18 14:12N 38°03' W 122°06'2 0.9
2014-Aug-18 12:31N 38°02' W 122°08'4 0.5
2014-Aug-18 04:33N 38°03' W 122°12'1010.2
2014-Aug-18 03:33N 38°00' W 122°24'6 5.9
2014-Aug-18 02:33N 37°54' W 122°22'3 2.7
2014-Aug-18 01:33N 37°55' W 122°25'5 5.1
2014-Aug-18 00:33N 37°50' W 122°26'15 2.5
2014-Aug-17 18:33N 38°03' W 122°17'7 5.4
2014-Aug-17 17:22N 38°02' W 122°09'2 1.2
2014-Aug-17 15:24N 38°03' W 122°06'1 0.1
2014-Aug-17 05:32N 38°03' W 122°08'0 0.0
2014-Aug-17 04:33N 38°03' W 122°08'0 0.0
2014-Aug-17 03:33N 38°03' W 122°08'0 0.0
2014-Aug-17 02:33N 38°03' W 122°08'0 0.0
2014-Aug-17 01:24N 38°03' W 122°08'1 0.1
2014-Aug-16 15:26N 38°03' W 122°06'1 0.9
2014-Aug-16 14:33N 38°03' W 122°05'4 1.7
2014-Aug-16 12:27N 38°02' W 122°10'9 9.0
2014-Aug-16 11:30N 38°03' W 122°21'910.0
2014-Aug-16 10:33N 37°54' W 122°27'9 9.1
2014-Aug-16 09:33N 37°46' W 122°22'1 0.7
2014-Aug-16 08:33N 37°47' W 122°23'2 1.9
2014-Aug-16 07:33N 37°48' W 122°24'0 0.0
2014-Aug-16 06:33N 37°48' W 122°24'0 0.0
2014-Aug-16 05:33N 37°48' W 122°24'0 0.0
2014-Aug-16 04:33N 37°48' W 122°24'0 0.0
2014-Aug-16 03:33N 37°48' W 122°24'0 0.0
2014-Aug-16 02:33N 37°48' W 122°24'0 0.0
2014-Aug-16 01:33N 37°48' W 122°24'4 4.1
2014-Aug-16 00:33N 37°48' W 122°19'3 3.2
2014-Aug-15 23:33N 37°49' W 122°23'7 7.0
2014-Aug-15 22:33N 37°56' W 122°25'0 0.1
2014-Aug-15 21:33N 37°56' W 122°25'1 1.2
2014-Aug-15 20:33N 37°54' W 122°25'1 0.7
2014-Aug-15 19:33N 37°55' W 122°25'0 0.4
2014-Aug-15 18:33N 37°55' W 122°25'0 0.0
2014-Aug-15 17:33N 37°55' W 122°25'0 0.0
2014-Aug-15 16:33N 37°55' W 122°25'0 0.0
2014-Aug-15 15:33N 37°55' W 122°25'1 0.8
2014-Aug-15 14:34N 37°55' W 122°25'8 8.5
2014-Aug-15 13:33N 37°47' W 122°21'1 0.6
2014-Aug-15 12:33N 37°48' W 122°21'1 1.2
2014-Aug-15 11:33N 37°49' W 122°20'0 0.2
2014-Aug-15 10:33N 37°49' W 122°20'0 0.2
2014-Aug-15 09:33N 37°49' W 122°20'3 3.0
2014-Aug-15 08:33N 37°48' W 122°24'0 0.0
2014-Aug-15 07:33N 37°48' W 122°24'0 0.0
2014-Aug-15 06:33N 37°48' W 122°24'0 0.0
2014-Aug-15 05:33N 37°48' W 122°24'0 0.0
2014-Aug-15 04:33N 37°48' W 122°24'0 0.0
2014-Aug-15 03:33N 37°48' W 122°24'0 0.0
2014-Aug-15 02:33N 37°48' W 122°24'3 3.1
2014-Aug-15 01:33N 37°51' W 122°24'4 4.4
2014-Aug-15 00:33N 37°55' W 122°22'1 1.1
2014-Aug-14 23:33N 37°54' W 122°22'3 2.9
2014-Aug-14 22:33N 37°52' W 122°24'4 4.1
2014-Aug-14 21:33N 37°48' W 122°24'0 0.0
2014-Aug-14 20:33N 37°48' W 122°24'0 0.0
2014-Aug-14 19:33N 37°48' W 122°24'0 0.0
2014-Aug-14 18:33N 37°48' W 122°24'0 0.0
2014-Aug-14 17:33N 37°48' W 122°24'0 0.0
2014-Aug-14 16:33N 37°48' W 122°24'0 0.0
2014-Aug-14 15:33N 37°48' W 122°24'3 3.5
2014-Aug-14 14:33N 37°49' W 122°20'4 4.0
2014-Aug-14 13:33N 37°49' W 122°25'1 1.0
2014-Aug-14 12:33N 37°48' W 122°24'0 0.0
2014-Aug-14 11:33N 37°48' W 122°24'0 0.0
2014-Aug-14 10:33N 37°48' W 122°24'1 0.9
2014-Aug-14 09:33N 37°48' W 122°23'1 1.3
2014-Aug-14 08:33N 37°49' W 122°24'6 6.0
2014-Aug-14 07:33N 37°49' W 122°31'6 5.9
2014-Aug-14 06:33N 37°48' W 122°24'0 0.0
2014-Aug-14 05:33N 37°48' W 122°24'0 0.0
2014-Aug-14 04:33N 37°48' W 122°24'0 0.0
2014-Aug-14 03:33N 37°48' W 122°24'0 0.0
2014-Aug-14 02:33N 37°48' W 122°24'3 2.5
2014-Aug-14 01:33N 37°48' W 122°21'1 0.9
2014-Aug-14 00:33N 37°49' W 122°20'1 1.0
2014-Aug-13 23:33N 37°48' W 122°19'0 0.2
2014-Aug-13 22:33N 37°48' W 122°19'5 4.8
2014-Aug-13 21:33N 37°51' W 122°24'7 6.8
2014-Aug-13 20:33N 37°57' W 122°26'8 7.8
2014-Aug-13 19:33N 38°03' W 122°19'  

Dump ship's entire track history